»·PEaware :: USC243 KFSU-KPRC

USC243 :: KFSU-KPRC

FLIGHT INFORMATION

Flight Status: Arrived
Operator: Unknown
More flights by this operator :: More flights under this callsign
Pilot: Andy P. (22680)
Aircraft: GATES LEARJET LEARJET 35/36
(LJ35)
More flights by this aircraft type
Origin: KFSU Ft Sumner Mun
United States
Destination: KPRC Love
United States
More flights between these airports :: More routes between these airports
Route: +CRTTR ABQ J6 DRK
File this flight plan on PilotEdge
Remarks:
Altitude:
(Current/Filed)
28,000ft
Speed:
(Current/Filed)
465kts
Departed: 03-Mar-19 03:03 PM
Arrived: 03-Mar-19 04:26 PM
Distance/Time
Traveled:
405nm/1:23
Distance/Time
To Go:
Arrived

Flight Plot

Page will automatically refresh every two minutes.

Flight plan parsing failed; only flown route is shown


Map Options




Map Legend


Flown Route
Filed Route
Departure Airport
Arrival Airport
Navaid (VOR, NDB)
Fix

Horizontal Profiles

Position Reports

Time Latitude Longitude Heading Altitude Ground
Speed
03-Mar-19 14:44 34.489802 -104.220812 300 4168ft 0kts
03-Mar-19 14:45 34.489802 -104.220812 300 4168ft 0kts
03-Mar-19 14:46 34.489802 -104.220812 300 4168ft 0kts
03-Mar-19 14:47 34.489802 -104.220812 300 4168ft 0kts
03-Mar-19 14:48 34.489802 -104.220812 300 4168ft 0kts
03-Mar-19 14:49 34.489802 -104.220812 300 4168ft 0kts
03-Mar-19 14:50 34.489802 -104.220812 300 4168ft 0kts
03-Mar-19 14:51 34.489802 -104.220812 300 4168ft 0kts
03-Mar-19 14:52 34.489802 -104.220812 300 4168ft 0kts
03-Mar-19 14:53 34.489802 -104.220812 300 4168ft 0kts
03-Mar-19 14:54 34.489802 -104.220812 300 4168ft 0kts
03-Mar-19 14:55 34.489802 -104.220812 300 4168ft 0kts
03-Mar-19 14:57 34.489802 -104.220812 300 4168ft 0kts
03-Mar-19 14:58 34.489806 -104.221035 236 4168ft 5kts
03-Mar-19 14:59 34.488717 -104.224197 270 4168ft 15kts
03-Mar-19 15:00 34.486584 -104.225942 172 4168ft 17kts
03-Mar-19 15:01 34.483004 -104.223382 134 4168ft 0kts
03-Mar-19 15:02 34.483004 -104.223381 134 4168ft 0kts
03-Mar-19 15:03 34.498124 -104.206114 24 5243ft 186kts
03-Mar-19 15:04 34.541685 -104.252403 292 9812ft 251kts
03-Mar-19 15:05 34.579825 -104.330606 299 16019ft 261kts
03-Mar-19 15:06 34.627322 -104.400456 311 22260ft 281kts
03-Mar-19 15:07 34.680484 -104.474166 303 26358ft 311kts
03-Mar-19 15:08 34.711405 -104.576816 281 28171ft 361kts
03-Mar-19 15:09 34.731489 -104.700712 281 28141ft 371kts
03-Mar-19 15:10 34.751039 -104.824878 281 28119ft 376kts
03-Mar-19 15:11 34.770548 -104.950106 281 28097ft 381kts
03-Mar-19 15:12 34.790098 -105.077760 281 28070ft 383kts
03-Mar-19 15:13 34.809655 -105.205661 281 28030ft 380kts
03-Mar-19 15:14 34.828384 -105.329894 281 28029ft 373kts
03-Mar-19 15:15 34.847443 -105.455151 281 28269ft 373kts
03-Mar-19 15:16 34.865965 -105.578895 281 29887ft 363kts
03-Mar-19 15:16 34.880854 -105.678612 281 32371ft 348kts
03-Mar-19 15:17 34.897887 -105.794367 281 33909ft 332kts
03-Mar-19 15:19 34.916944 -105.924260 281 33998ft 347kts
03-Mar-19 15:20 34.933680 -106.039270 281 33985ft 340kts
03-Mar-19 15:20 34.947312 -106.133513 281 33984ft 337kts
03-Mar-19 15:21 34.963496 -106.246058 281 33979ft 336kts
03-Mar-19 15:22 34.979652 -106.359196 280 33966ft 340kts
03-Mar-19 15:24 34.998485 -106.492126 280 33953ft 339kts
03-Mar-19 15:24 35.011676 -106.585880 280 33952ft 337kts
03-Mar-19 15:25 35.027409 -106.698408 280 33952ft 336kts
03-Mar-19 15:26 35.042164 -106.811335 277 33959ft 338kts
03-Mar-19 15:27 35.041102 -106.927088 272 33980ft 343kts
03-Mar-19 15:28 35.038194 -107.044034 272 33980ft 344kts
03-Mar-19 15:29 35.035161 -107.160531 272 33980ft 345kts
03-Mar-19 15:30 35.031980 -107.278133 272 33981ft 345kts
03-Mar-19 15:31 35.028694 -107.395435 272 33981ft 345kts
03-Mar-19 15:32 35.025328 -107.511758 272 33986ft 345kts
03-Mar-19 15:33 35.021818 -107.628847 271 33993ft 345kts
03-Mar-19 15:34 35.018192 -107.746121 271 33998ft 345kts
03-Mar-19 15:35 35.014448 -107.863580 271 34000ft 345kts
03-Mar-19 15:36 35.010624 -107.980053 271 34005ft 345kts
03-Mar-19 15:37 35.006649 -108.097556 271 34005ft 345kts
03-Mar-19 15:38 35.002588 -108.214340 271 34005ft 345kts
03-Mar-19 15:39 34.998425 -108.330811 271 34005ft 345kts
03-Mar-19 15:40 34.994111 -108.448270 271 34005ft 345kts
03-Mar-19 15:41 34.989710 -108.565046 271 34005ft 345kts
03-Mar-19 15:42 34.985154 -108.682903 271 34005ft 345kts
03-Mar-19 15:43 34.980541 -108.799346 271 34005ft 345kts
03-Mar-19 15:44 34.975779 -108.916662 271 34005ft 345kts
03-Mar-19 15:45 34.970929 -109.033404 270 34005ft 345kts
03-Mar-19 15:46 34.965947 -109.150519 270 34005ft 345kts
03-Mar-19 15:47 34.958557 -109.267256 269 34005ft 346kts
03-Mar-19 15:48 34.950626 -109.383959 269 34006ft 345kts
03-Mar-19 15:49 34.942635 -109.501686 269 34006ft 345kts
03-Mar-19 15:50 34.934631 -109.618260 269 34006ft 345kts
03-Mar-19 15:51 34.926498 -109.735118 269 34006ft 345kts
03-Mar-19 15:52 34.918288 -109.851510 269 34006ft 345kts
03-Mar-19 15:53 34.909951 -109.968008 268 34006ft 345kts
03-Mar-19 15:54 34.901480 -110.084837 268 34032ft 345kts
03-Mar-19 15:55 34.892898 -110.201620 268 34019ft 346kts
03-Mar-19 15:56 34.884245 -110.317812 268 34019ft 346kts
03-Mar-19 15:57 34.875434 -110.434611 268 34017ft 346kts
03-Mar-19 15:58 34.866522 -110.551239 268 34011ft 346kts
03-Mar-19 15:59 34.857522 -110.667550 268 34009ft 346kts
03-Mar-19 16:00 34.848365 -110.784418 268 34009ft 346kts
03-Mar-19 16:01 34.839146 -110.900633 268 34009ft 346kts
03-Mar-19 16:02 34.829794 -111.017055 268 33744ft 346kts
03-Mar-19 16:03 34.820198 -111.135224 268 31663ft 353kts
03-Mar-19 16:04 34.810328 -111.255798 268 29573ft 361kts
03-Mar-19 16:05 34.800234 -111.376128 267 27485ft 374kts
03-Mar-19 16:06 34.789454 -111.504335 266 25217ft 386kts
03-Mar-19 16:07 34.778258 -111.635349 265 22967ft 389kts
03-Mar-19 16:08 34.767346 -111.761247 265 20795ft 371kts
03-Mar-19 16:09 34.756145 -111.889094 265 18593ft 380kts
03-Mar-19 16:10 34.745128 -112.013301 264 16448ft 356kts
03-Mar-19 16:11 34.739094 -112.131751 282 14194ft 354kts
03-Mar-19 16:12 34.813803 -112.199668 357 10966ft 341kts
03-Mar-19 16:13 34.895099 -112.166924 19 10179ft 287kts
03-Mar-19 16:14 34.966469 -112.130350 19 9401ft 261kts
03-Mar-19 16:15 34.983409 -112.074485 162 9076ft 202kts
03-Mar-19 16:16 34.946208 -112.111603 226 9101ft 181kts
03-Mar-19 16:17 34.904707 -112.151194 221 9107ft 202kts
03-Mar-19 16:18 34.862465 -112.199163 222 8772ft 209kts
03-Mar-19 16:19 34.817739 -112.245885 221 7925ft 208kts
03-Mar-19 16:20 34.777419 -112.289151 221 7898ft 182kts
03-Mar-19 16:21 34.742895 -112.325913 222 7139ft 145kts
03-Mar-19 16:22 34.712042 -112.357588 221 6352ft 142kts
03-Mar-19 16:23 34.680976 -112.391503 221 5521ft 134kts
03-Mar-19 16:24 34.655537 -112.418243 221 5048ft 73kts
03-Mar-19 16:25 34.650728 -112.421947 147 5048ft 0kts
03-Mar-19 16:26 34.649813 -112.422640 223 5048ft 20kts
03-Mar-19 16:27 34.646220 -112.424098 84 5048ft 10kts
03-Mar-19 16:28 34.646716 -112.423773 42 5048ft 0kts
03-Mar-19 16:29 34.646716 -112.423773 42 5048ft 0kts
03-Mar-19 16:30 34.646716 -112.423773 42 5048ft 0kts
03-Mar-19 16:31 34.646716 -112.423773 42 5048ft 0kts
03-Mar-19 16:32 34.646716 -112.423773 42 5048ft 0kts
03-Mar-19 16:33 34.646716 -112.423773 42 5048ft 0kts
03-Mar-19 16:34 34.646716 -112.423773 42 5048ft 0kts
03-Mar-19 16:35 34.646716 -112.423773 42 5048ft 0kts
03-Mar-19 16:36 34.646716 -112.423773 42 5048ft 0kts
03-Mar-19 16:37 34.646716 -112.423773 42 5048ft 0kts
03-Mar-19 16:38 34.646716 -112.423773 42 5048ft 0kts
03-Mar-19 16:39 34.646716 -112.423773 42 5048ft 0kts
03-Mar-19 16:40 34.646716 -112.423773 42 5048ft 0kts

Navigation Log

Ident Type
Flight plan parsing failed, navigation log unavailable